Time,TemperatureF,DewpointF,PressureIn,WindDirection,WindDirectionDegrees,WindSpeedMPH,WindSpeedGustMPH,Humidity,HourlyPrecipIn,Conditions,Clouds,dailyrainin,SoftwareType,DateUTC
2013-07-12 00:01:00,56.0,47.0,-100.00,WSW,241,2.0,4.0,72,-99.99,,,-99.99,,2013-07-12 06:01:00,
2013-07-12 00:11:00,56.0,47.0,-100.00,WSW,241,2.0,4.0,72,-99.99,,,-99.99,,2013-07-12 06:11:00,
2013-07-12 00:22:00,56.0,47.0,-100.00,WSW,244,3.0,4.0,72,-99.99,,,-99.99,,2013-07-12 06:22:00,
2013-07-12 00:32:00,56.0,47.0,-100.00,WSW,244,3.0,4.0,72,-99.99,,,-99.99,,2013-07-12 06:32:00,
2013-07-12 00:52:00,56.0,47.0,-100.00,WSW,248,2.0,4.0,73,-99.99,,,-99.99,,2013-07-12 06:52:00,
2013-07-12 01:02:00,55.0,47.0,-100.00,SW,229,3.0,4.0,74,-99.99,,,-99.99,,2013-07-12 07:02:00,
2013-07-12 01:12:00,55.0,47.0,-100.00,SW,235,4.0,5.0,74,-99.99,,,-99.99,,2013-07-12 07:12:00,
2013-07-12 01:22:00,55.0,47.0,-100.00,SW,235,4.0,5.0,74,-99.99,,,-99.99,,2013-07-12 07:22:00,
2013-07-12 01:32:00,55.0,47.0,-100.00,SW,235,4.0,5.0,74,-99.99,,,-99.99,,2013-07-12 07:32:00,
2013-07-12 01:52:00,55.0,47.0,-100.00,SSE,153,0.0,1.0,74,-99.99,,,-99.99,,2013-07-12 07:52:00,
2013-07-12 02:01:00,55.0,48.0,-100.00,SE,137,2.0,3.0,76,-99.99,,,-99.99,,2013-07-12 08:01:00,
2013-07-12 02:21:00,55.0,48.0,-100.00,ESE,115,3.0,4.0,77,-99.99,,,-99.99,,2013-07-12 08:21:00,
2013-07-12 02:32:00,55.0,48.0,-100.00,ESE,115,3.0,4.0,77,-99.99,,,-99.99,,2013-07-12 08:32:00,
2013-07-12 02:42:00,55.0,48.0,-100.00,SE,133,5.0,8.0,78,-99.99,,,-99.99,,2013-07-12 08:42:00,
2013-07-12 02:53:00,55.0,48.0,-100.00,SE,133,5.0,8.0,78,-99.99,,,-99.99,,2013-07-12 08:53:00,
2013-07-12 03:02:00,55.0,48.0,-100.00,SSE,168,8.0,15.0,79,-99.99,,,-99.99,,2013-07-12 09:02:00,
2013-07-12 03:12:00,55.0,47.0,-100.00,South,182,5.0,14.0,74,-99.99,,,-99.99,,2013-07-12 09:12:00,
2013-07-12 03:22:00,55.0,47.0,-100.00,South,182,5.0,14.0,74,-99.99,,,-99.99,,2013-07-12 09:22:00,
2013-07-12 03:32:00,55.0,47.0,-100.00,South,182,5.0,14.0,74,-99.99,,,-99.99,,2013-07-12 09:32:00,
2013-07-12 03:42:00,55.0,48.0,-100.00,WNW,290,3.0,6.0,76,-99.99,,,-99.99,,2013-07-12 09:42:00,
2013-07-12 03:52:00,55.0,48.0,-100.00,WNW,290,3.0,6.0,76,-99.99,,,-99.99,,2013-07-12 09:52:00,
2013-07-12 04:01:00,55.0,48.0,-100.00,West,267,2.0,4.0,79,-99.99,,,-99.99,,2013-07-12 10:01:00,
2013-07-12 04:22:00,55.0,48.0,-100.00,SE,124,1.0,4.0,79,-99.99,,,-99.99,,2013-07-12 10:22:00,
2013-07-12 04:33:00,55.0,48.0,-100.00,SE,124,1.0,4.0,79,-99.99,,,-99.99,,2013-07-12 10:33:00,
2013-07-12 04:42:00,55.0,47.0,-100.00,SSW,200,4.0,6.0,75,-99.99,,,-99.99,,2013-07-12 10:42:00,
2013-07-12 04:52:00,55.0,47.0,-100.00,SSW,200,4.0,6.0,75,-99.99,,,-99.99,,2013-07-12 10:52:00,
2013-07-12 05:02:00,56.0,46.0,-100.00,SSW,203,3.0,7.0,68,-99.99,,,-99.99,,2013-07-12 11:02:00,
2013-07-12 05:11:00,57.0,47.0,-100.00,ESE,103,1.0,3.0,68,-99.99,,,-99.99,,2013-07-12 11:11:00,
2013-07-12 05:22:00,57.0,47.0,-100.00,ESE,103,1.0,3.0,68,-99.99,,,-99.99,,2013-07-12 11:22:00,
2013-07-12 05:32:00,57.0,47.0,-100.00,ESE,103,1.0,3.0,68,-99.99,,,-99.99,,2013-07-12 11:32:00,
2013-07-12 05:53:00,55.0,48.0,-100.00,North,358,1.0,2.0,76,-99.99,,,-99.99,,2013-07-12 11:53:00,
2013-07-12 06:01:00,55.0,48.0,-100.00,SE,131,1.0,2.0,75,-99.99,,,-99.99,,2013-07-12 12:01:00,
2013-07-12 06:11:00,56.0,47.0,-100.00,SW,218,2.0,3.0,72,-99.99,,,-99.99,,2013-07-12 12:11:00,
2013-07-12 06:22:00,56.0,47.0,-100.00,SW,218,2.0,3.0,72,-99.99,,,-99.99,,2013-07-12 12:22:00,
2013-07-12 06:32:00,56.0,47.0,-100.00,SW,218,2.0,3.0,72,-99.99,,,-99.99,,2013-07-12 12:32:00,
2013-07-12 06:43:00,55.0,47.0,-100.00,WSW,255,1.0,4.0,74,-99.99,,,-99.99,,2013-07-12 12:43:00,
2013-07-12 06:52:00,55.0,47.0,-100.00,WSW,255,1.0,4.0,74,-99.99,,,-99.99,,2013-07-12 12:52:00,
2013-07-12 07:01:00,55.0,48.0,-100.00,West,270,2.0,4.0,79,-99.99,,,-99.99,,2013-07-12 13:01:00,
2013-07-12 07:22:00,54.0,49.0,-100.00,West,280,3.0,5.0,83,-99.99,,,-99.99,,2013-07-12 13:22:00,
2013-07-12 07:32:00,54.0,49.0,-100.00,West,280,3.0,5.0,83,-99.99,,,-99.99,,2013-07-12 13:32:00,
2013-07-12 07:43:00,53.0,50.0,-100.00,WSW,239,2.0,4.0,88,-99.99,,,-99.99,,2013-07-12 13:43:00,
2013-07-12 07:53:00,53.0,50.0,-100.00,WSW,239,2.0,4.0,88,-99.99,,,-99.99,,2013-07-12 13:53:00,
2013-07-12 08:02:00,52.0,49.0,-100.00,SW,217,2.0,4.0,89,-99.99,,,-99.99,,2013-07-12 14:02:00,
2013-07-12 08:11:00,52.0,49.0,-100.00,SW,217,2.0,4.0,89,-99.99,,,-99.99,,2013-07-12 14:11:00,
2013-07-12 08:22:00,52.0,49.0,-100.00,SW,219,1.0,3.0,89,-99.99,,,-99.99,,2013-07-12 14:22:00,
2013-07-12 08:32:00,52.0,49.0,-100.00,SW,219,1.0,3.0,89,-99.99,,,-99.99,,2013-07-12 14:32:00,
2013-07-12 08:43:00,52.0,50.0,-100.00,SSE,150,2.0,3.0,90,-99.99,,,-99.99,,2013-07-12 14:43:00,
2013-07-12 08:53:00,52.0,50.0,-100.00,SSE,150,2.0,3.0,90,-99.99,,,-99.99,,2013-07-12 14:53:00,
2013-07-12 09:01:00,53.0,50.0,-100.00,SW,227,1.0,5.0,90,-99.99,,,-99.99,,2013-07-12 15:01:00,
2013-07-12 09:22:00,52.0,50.0,-100.00,South,187,2.0,4.0,92,-99.99,,,-99.99,,2013-07-12 15:22:00,
2013-07-12 09:33:00,52.0,50.0,-100.00,South,187,2.0,4.0,92,-99.99,,,-99.99,,2013-07-12 15:33:00,
2013-07-12 09:43:00,52.0,50.0,-100.00,South,187,2.0,4.0,92,-99.99,,,-99.99,,2013-07-12 15:43:00,
2013-07-12 09:53:00,53.0,50.0,-100.00,SE,141,1.0,3.0,90,-99.99,,,-99.99,,2013-07-12 15:53:00,
2013-07-12 10:01:00,53.0,51.0,-100.00,East,99,2.0,3.0,91,-99.99,,,-99.99,,2013-07-12 16:01:00,
2013-07-12 10:22:00,53.0,51.0,-100.00,ESE,118,3.0,5.0,90,-99.99,,,-99.99,,2013-07-12 16:22:00,
2013-07-12 10:32:00,53.0,51.0,-100.00,ESE,118,3.0,5.0,90,-99.99,,,-99.99,,2013-07-12 16:32:00,
2013-07-12 10:42:00,54.0,51.0,-100.00,NE,38,2.0,4.0,89,-99.99,,,-99.99,,2013-07-12 16:42:00,
2013-07-12 10:58:00,54.0,51.0,-100.00,NE,38,2.0,4.0,89,-99.99,,,-99.99,,2013-07-12 16:58:00,
2013-07-12 11:04:00,54.0,52.0,-100.00,East,80,1.0,3.0,92,-99.99,,,-99.99,,2013-07-12 17:04:00,
2013-07-12 11:12:00,54.0,52.0,-100.00,East,80,1.0,3.0,92,-99.99,,,-99.99,,2013-07-12 17:12:00,
2013-07-12 11:23:00,55.0,53.0,-100.00,East,82,3.0,5.0,93,-99.99,,,-99.99,,2013-07-12 17:23:00,
2013-07-12 11:34:00,55.0,53.0,-100.00,East,82,3.0,5.0,93,-99.99,,,-99.99,,2013-07-12 17:34:00,
2013-07-12 11:44:00,55.0,53.0,-100.00,ENE,71,3.0,5.0,93,-99.99,,,-99.99,,2013-07-12 17:44:00,
2013-07-12 11:55:00,55.0,53.0,-100.00,ENE,71,3.0,5.0,93,-99.99,,,-99.99,,2013-07-12 17:55:00,
2013-07-12 12:03:00,55.0,53.0,-100.00,ENE,59,3.0,6.0,93,-99.99,,,-99.99,,2013-07-12 18:03:00,
2013-07-12 12:12:00,55.0,53.0,-100.00,ENE,70,3.0,6.0,93,-99.99,,,-99.99,,2013-07-12 18:12:00,
2013-07-12 12:23:00,55.0,53.0,-100.00,ENE,70,3.0,6.0,93,-99.99,,,-99.99,,2013-07-12 18:23:00,
2013-07-12 12:33:00,55.0,53.0,-100.00,ENE,70,3.0,6.0,93,-99.99,,,-99.99,,2013-07-12 18:33:00,
2013-07-12 12:45:00,56.0,53.0,-100.00,ENE,60,5.0,8.0,90,-99.99,,,-99.99,,2013-07-12 18:45:00,
2013-07-12 12:56:00,56.0,53.0,-100.00,ENE,60,5.0,8.0,90,-99.99,,,-99.99,,2013-07-12 18:56:00,
2013-07-12 13:03:00,56.0,52.0,-100.00,NE,51,5.0,8.0,87,-99.99,,,-99.99,,2013-07-12 19:03:00,
2013-07-12 13:13:00,56.0,52.0,-100.00,NE,51,5.0,8.0,87,-99.99,,,-99.99,,2013-07-12 19:13:00,
2013-07-12 13:22:00,56.0,53.0,-100.00,ENE,63,7.0,9.0,89,-99.99,,,-99.99,,2013-07-12 19:22:00,
2013-07-12 13:32:00,56.0,53.0,-100.00,ENE,63,7.0,9.0,89,-99.99,,,-99.99,,2013-07-12 19:32:00,
2013-07-12 13:44:00,57.0,52.0,-100.00,ENE,71,6.0,9.0,82,-99.99,,,-99.99,,2013-07-12 19:44:00,
2013-07-12 13:58:00,57.0,52.0,-100.00,ENE,71,6.0,9.0,82,-99.99,,,-99.99,,2013-07-12 19:58:00,
2013-07-12 14:22:00,58.0,51.0,-100.00,ENE,66,5.0,9.0,78,-99.99,,,-99.99,,2013-07-12 20:22:00,
2013-07-12 14:33:00,58.0,51.0,-100.00,ENE,66,5.0,9.0,78,-99.99,,,-99.99,,2013-07-12 20:33:00,
2013-07-12 14:55:00,59.0,52.0,-100.00,ENE,60,6.0,9.0,77,-99.99,,,-99.99,,2013-07-12 20:55:00,
2013-07-12 15:02:00,59.0,50.0,-100.00,NE,52,6.0,10.0,70,-99.99,,,-99.99,,2013-07-12 21:02:00,
2013-07-12 15:13:00,60.0,47.0,-100.00,NE,45,4.0,7.0,62,-99.99,,,-99.99,,2013-07-12 21:13:00,
2013-07-12 15:23:00,60.0,47.0,-100.00,NE,45,4.0,7.0,62,-99.99,,,-99.99,,2013-07-12 21:23:00,
2013-07-12 15:33:00,60.0,47.0,-100.00,NE,45,4.0,7.0,62,-99.99,,,-99.99,,2013-07-12 21:33:00,
2013-07-12 15:57:00,61.0,49.0,-100.00,East,81,6.0,9.0,64,-99.99,,,-99.99,,2013-07-12 21:57:00,
2013-07-12 16:22:00,61.0,48.0,-100.00,ENE,76,3.0,7.0,60,-99.99,,,-99.99,,2013-07-12 22:22:00,
2013-07-12 16:33:00,61.0,48.0,-100.00,ENE,76,3.0,7.0,60,-99.99,,,-99.99,,2013-07-12 22:33:00,
2013-07-12 16:43:00,63.0,49.0,-100.00,ENE,68,4.0,9.0,61,-99.99,,,-99.99,,2013-07-12 22:43:00,
2013-07-12 16:55:00,63.0,49.0,-100.00,ENE,68,4.0,9.0,61,-99.99,,,-99.99,,2013-07-12 22:55:00,
2013-07-12 17:02:00,63.0,49.0,-100.00,ENE,68,4.0,9.0,61,-99.99,,,-99.99,,2013-07-12 23:02:00,
2013-07-12 17:12:00,63.0,49.0,-100.00,ENE,68,4.0,9.0,61,-99.99,,,-99.99,,2013-07-12 23:12:00,
2013-07-12 17:22:00,65.0,51.0,-100.00,East,93,5.0,9.0,60,-99.99,,,-99.99,,2013-07-12 23:22:00,
2013-07-12 17:33:00,65.0,51.0,-100.00,East,93,5.0,9.0,60,-99.99,,,-99.99,,2013-07-12 23:33:00,
2013-07-12 17:42:00,65.0,51.0,-100.00,East,93,5.0,9.0,60,-99.99,,,-99.99,,2013-07-12 23:42:00,
2013-07-12 18:03:00,65.0,50.0,-100.00,ESE,105,1.0,3.0,57,-99.99,,,-99.99,,2013-07-13 00:03:00,
2013-07-12 18:13:00,65.0,50.0,-100.00,ESE,105,1.0,3.0,57,-99.99,,,-99.99,,2013-07-13 00:13:00,
2013-07-12 18:32:00,64.0,49.0,-100.00,East,88,2.0,5.0,57,-99.99,,,-99.99,,2013-07-13 00:32:00,
2013-07-12 18:44:00,64.0,50.0,-100.00,SE,127,5.0,8.0,60,-99.99,,,-99.99,,2013-07-13 00:44:00,
2013-07-12 18:56:00,64.0,50.0,-100.00,SE,127,5.0,8.0,60,-99.99,,,-99.99,,2013-07-13 00:56:00,
2013-07-12 19:02:00,64.0,50.0,-100.00,South,179,1.0,4.0,61,-99.99,,,-99.99,,2013-07-13 01:02:00,
2013-07-12 19:11:00,64.0,50.0,-100.00,South,179,1.0,4.0,61,-99.99,,,-99.99,,2013-07-13 01:11:00,
2013-07-12 19:23:00,64.0,50.0,-100.00,ENE,64,1.0,3.0,58,-99.99,,,-99.99,,2013-07-13 01:23:00,
2013-07-12 19:33:00,64.0,50.0,-100.00,ENE,64,1.0,3.0,58,-99.99,,,-99.99,,2013-07-13 01:33:00,
2013-07-12 19:56:00,64.0,51.0,-100.00,SSE,152,2.0,4.0,61,-99.99,,,-99.99,,2013-07-13 01:56:00,
2013-07-12 20:04:00,64.0,51.0,-100.00,SSE,151,3.0,5.0,61,-99.99,,,-99.99,,2013-07-13 02:04:00,
2013-07-12 20:22:00,65.0,51.0,-100.00,SSE,159,3.0,4.0,61,-99.99,,,-99.99,,2013-07-13 02:22:00,
2013-07-12 20:34:00,65.0,51.0,-100.00,SSE,159,3.0,4.0,61,-99.99,,,-99.99,,2013-07-13 02:34:00,
2013-07-12 20:55:00,63.0,49.0,-100.00,SSE,164,6.0,8.0,59,-99.99,,,-99.99,,2013-07-13 02:55:00,
2013-07-12 21:04:00,63.0,50.0,-100.00,South,171,7.0,9.0,62,-99.99,,,-99.99,,2013-07-13 03:04:00,
2013-07-12 21:12:00,63.0,50.0,-100.00,South,171,7.0,9.0,62,-99.99,,,-99.99,,2013-07-13 03:12:00,
2013-07-12 21:33:00,63.0,50.0,-100.00,South,180,7.0,9.0,62,-99.99,,,-99.99,,2013-07-13 03:33:00,
2013-07-12 21:44:00,63.0,50.0,-100.00,South,171,7.0,11.0,61,-99.99,,,-99.99,,2013-07-13 03:44:00,
2013-07-12 21:57:00,63.0,50.0,-100.00,South,171,7.0,11.0,61,-99.99,,,-99.99,,2013-07-13 03:57:00,
2013-07-12 22:01:00,63.0,49.0,-100.00,SSE,165,8.0,11.0,59,-99.99,,,-99.99,,2013-07-13 04:01:00,
2013-07-12 22:11:00,63.0,49.0,-100.00,SSE,165,8.0,11.0,59,-99.99,,,-99.99,,2013-07-13 04:11:00,
2013-07-12 22:22:00,63.0,49.0,-100.00,South,172,9.0,14.0,60,-99.99,,,-99.99,,2013-07-13 04:22:00,
2013-07-12 22:32:00,63.0,49.0,-100.00,South,172,9.0,14.0,60,-99.99,,,-99.99,,2013-07-13 04:32:00,
2013-07-12 22:43:00,63.0,46.0,-100.00,South,182,10.0,15.0,52,-99.99,,,-99.99,,2013-07-13 04:43:00,
2013-07-12 22:52:00,63.0,46.0,-100.00,South,182,10.0,15.0,52,-99.99,,,-99.99,,2013-07-13 04:52:00,
2013-07-12 23:01:00,63.0,46.0,-100.00,South,178,10.0,15.0,53,-99.99,,,-99.99,,2013-07-13 05:01:00,
2013-07-12 23:11:00,63.0,46.0,-100.00,South,178,10.0,15.0,53,-99.99,,,-99.99,,2013-07-13 05:11:00,
2013-07-12 23:42:00,63.0,44.0,-100.00,South,187,6.0,9.0,51,-99.99,,,-99.99,,2013-07-13 05:42:00,